Time;durP1;ratioP1;P1;durP2;ratioP2;P2;SDS_P1;SDS_P2;PMS_P1;PMS_P2;Temp;Humidity;BMP_temperature;BMP_pressure;BME280_temperature;BME280_humidity;BME280_pressure;Samples;Min_cycle;Max_cycle;Signal;HPM_P1;HPM_P2
2023/03/20 00:03:58;;;;;;;18.07;8.87;;;;;9.30;96429.00;;;;8433285;28;20222;-78
2023/03/20 00:08:01;;;;;;;14.80;7.60;;;;;9.30;96443.00;;;;8431834;28;20227;-78
2023/03/20 00:12:05;;;;;;;11.33;7.57;;;;;9.30;96438.00;;;;8432673;28;20210;-79
2023/03/20 00:16:13;;;;;;;11.33;6.97;;;;;9.20;96437.00;;;;8432595;28;20289;-78
2023/03/20 00:20:18;;;;;;;13.50;7.13;;;;;9.10;96433.00;;;;8433136;28;20299;-79
2023/03/20 00:24:22;;;;;;;9.60;6.97;;;;;9.00;96442.00;;;;8431945;28;20577;-79
2023/03/20 00:28:39;;;;;;;14.50;7.47;;;;;8.90;96432.00;;;;8432552;28;20570;-79
2023/03/20 00:32:45;;;;;;;14.07;7.22;;;;;8.70;96437.00;;;;8432490;28;20298;-79
2023/03/20 00:36:48;;;;;;;10.52;6.55;;;;;8.50;96435.00;;;;8432871;28;20589;-79
2023/03/20 00:40:52;;;;;;;13.93;7.00;;;;;8.40;96433.00;;;;8432745;28;20200;-79
2023/03/20 00:44:58;;;;;;;14.20;6.83;;;;;8.30;96426.00;;;;8431309;28;20265;-79
2023/03/20 00:49:02;;;;;;;12.07;7.70;;;;;8.00;96435.00;;;;8432075;28;20202;-79
2023/03/20 00:53:10;;;;;;;13.17;6.93;;;;;8.00;96434.00;;;;8431699;28;20532;-77
2023/03/20 00:57:18;;;;;;;14.13;7.13;;;;;7.80;96434.00;;;;8431518;28;20195;-78
2023/03/20 01:01:22;;;;;;;12.27;7.23;;;;;7.70;96432.00;;;;8430688;28;20590;-79
2023/03/20 01:05:27;;;;;;;15.07;7.63;;;;;7.60;96437.00;;;;8431264;28;20219;-79
2023/03/20 01:09:33;;;;;;;12.90;7.47;;;;;7.50;96442.00;;;;8430581;28;20202;-78
2023/03/20 01:13:41;;;;;;;15.63;6.97;;;;;7.20;96430.00;;;;8430920;28;20195;-78
2023/03/20 01:17:44;;;;;;;13.07;6.53;;;;;7.00;96414.00;;;;8428391;28;20249;-78
2023/03/20 01:21:49;;;;;;;13.90;6.77;;;;;6.70;96412.00;;;;8431969;28;20200;-78
2023/03/20 01:25:54;;;;;;;10.30;6.77;;;;;6.60;96419.00;;;;8429266;28;20604;-78
2023/03/20 01:29:58;;;;;;;12.43;6.87;;;;;6.50;96417.00;;;;8431660;28;20215;-78
2023/03/20 01:34:03;;;;;;;12.90;7.90;;;;;6.40;96405.00;;;;8429813;28;20253;-78
2023/03/20 01:38:13;;;;;;;10.70;6.37;;;;;6.40;96407.00;;;;8431698;28;20195;-78
2023/03/20 01:42:22;;;;;;;12.43;6.30;;;;;6.30;96403.00;;;;8430494;28;20194;-78
2023/03/20 01:46:28;;;;;;;11.50;6.47;;;;;6.20;96402.00;;;;8430180;28;20602;-78
2023/03/20 01:50:33;;;;;;;10.20;6.47;;;;;6.10;96400.00;;;;8431256;28;20203;-78
2023/03/20 01:54:39;;;;;;;13.47;7.57;;;;;6.10;96408.00;;;;8430621;28;20198;-78
2023/03/20 01:58:45;;;;;;;15.43;7.30;;;;;6.20;96413.00;;;;8430330;28;20282;-78
2023/03/20 02:02:50;;;;;;;10.67;6.70;;;;;6.40;96412.00;;;;8430357;28;20695;-79
2023/03/20 02:06:53;;;;;;;10.33;6.97;;;;;6.40;96426.00;;;;8429668;28;20666;-78
2023/03/20 02:11:00;;;;;;;12.37;6.70;;;;;6.30;96426.00;;;;8428948;28;20589;-78
2023/03/20 02:15:08;;;;;;;11.00;6.40;;;;;6.20;96427.00;;;;8430761;28;20509;-78
2023/03/20 02:19:20;;;;;;;13.70;7.50;;;;;6.10;96427.00;;;;8429629;28;20199;-78
2023/03/20 02:24:00;;;;;;;11.43;7.00;;;;;6.00;96430.00;;;;8435690;28;20225;-78
2023/03/20 02:28:41;;;;;;;12.77;6.47;;;;;5.80;96417.00;;;;8430740;28;20315;-78
2023/03/20 02:33:18;;;;;;;15.47;6.83;;;;;5.60;96420.00;;;;8433715;28;20243;-78
2023/03/20 02:37:39;;;;;;;10.13;6.37;;;;;5.50;96425.00;;;;8434910;28;20620;-78
2023/03/20 02:41:53;;;;;;;14.50;7.10;;;;;5.40;96421.00;;;;8436052;28;20199;-78
2023/03/20 02:46:03;;;;;;;10.93;6.20;;;;;5.30;96433.00;;;;8435013;28;20609;-78
2023/03/20 02:50:16;;;;;;;16.97;6.73;;;;;5.20;96422.00;;;;8434943;28;20286;-79
2023/03/20 02:54:27;;;;;;;13.53;6.27;;;;;5.10;96430.00;;;;8435609;28;20237;-80
2023/03/20 02:58:38;;;;;;;12.63;7.67;;;;;5.10;96429.00;;;;8436425;28;20278;-79
2023/03/20 03:02:47;;;;;;;16.97;7.40;;;;;5.20;96431.00;;;;8453299;22;20238;-80
2023/03/20 03:06:54;;;;;;;12.33;7.50;;;;;5.30;96432.00;;;;8439548;28;20214;-80
2023/03/20 03:11:10;;;;;;;14.77;7.43;;;;;5.30;96428.00;;;;8447830;28;20207;-81
2023/03/20 03:15:18;;;;;;;12.67;7.33;;;;;5.40;96422.00;;;;8445861;28;20218;-80
2023/03/20 03:19:28;;;;;;;15.70;7.47;;;;;5.40;96438.00;;;;8441521;28;20649;-80
2023/03/20 03:23:33;;;;;;;14.00;7.03;;;;;5.60;96447.00;;;;8444217;28;20662;-81
2023/03/20 03:27:41;;;;;;;15.50;7.97;;;;;5.80;96449.00;;;;8444429;28;20783;-81
2023/03/20 03:31:46;;;;;;;16.10;8.47;;;;;6.00;96443.00;;;;8447438;28;20649;-81
2023/03/20 03:35:52;;;;;;;18.37;9.10;;;;;6.30;96452.00;;;;8444828;28;20258;-81
2023/03/20 03:40:03;;;;;;;15.20;8.47;;;;;6.50;96454.00;;;;8444239;28;20213;-81
2023/03/20 03:44:21;;;;;;;20.50;9.87;;;;;6.70;96453.00;;;;8426492;28;20366;-81
2023/03/20 03:48:33;;;;;;;22.13;10.53;;;;;7.00;96444.00;;;;8441205;28;20258;-82
2023/03/20 03:52:40;;;;;;;17.63;10.03;;;;;7.30;96451.00;;;;8450092;28;20280;-81
2023/03/20 03:56:47;;;;;;;23.23;11.53;;;;;7.50;96449.00;;;;8443164;28;20199;-81
2023/03/20 04:00:58;;;;;;;19.47;10.70;;;;;7.60;96458.00;;;;8436723;28;20681;-80
2023/03/20 04:05:03;;;;;;;19.93;9.83;;;;;7.80;96458.00;;;;8427690;28;20243;-81
2023/03/20 04:09:06;;;;;;;20.83;10.87;;;;;7.90;96452.00;;;;8433763;28;20207;-81
2023/03/20 04:13:10;;;;;;;24.93;11.57;;;;;8.10;96458.00;;;;8432084;28;20224;-80
2023/03/20 04:17:16;;;;;;;22.70;11.57;;;;;8.20;96466.00;;;;8419044;28;20314;-82
2023/03/20 04:21:24;;;;;;;30.40;12.87;;;;;8.30;96463.00;;;;8431184;28;20240;-81
2023/03/20 04:25:29;;;;;;;28.40;12.23;;;;;8.50;96466.00;;;;8429831;28;20252;-81
2023/03/20 04:29:36;;;;;;;17.23;10.10;;;;;8.60;96474.00;;;;8422194;28;20196;-81
2023/03/20 04:33:42;;;;;;;19.60;11.13;;;;;8.60;96472.00;;;;8428430;28;20418;-81
2023/03/20 04:37:48;;;;;;;17.80;10.27;;;;;8.50;96471.00;;;;8422559;28;20229;-81
2023/03/20 04:41:57;;;;;;;15.67;7.50;;;;;8.40;96477.00;;;;8420851;28;20199;-80
2023/03/20 04:46:00;;;;;;;17.93;10.40;;;;;8.40;96467.00;;;;8419899;28;20261;-79
2023/03/20 04:50:09;;;;;;;11.97;7.00;;;;;8.30;96464.00;;;;8420575;28;20192;-82
2023/03/20 04:54:12;;;;;;;10.63;6.60;;;;;8.10;96478.00;;;;8402863;28;20564;-78
2023/03/20 04:58:18;;;;;;;13.50;7.23;;;;;8.00;96477.00;;;;8414712;28;20661;-76
2023/03/20 05:02:21;;;;;;;17.93;9.27;;;;;7.90;96474.00;;;;8410851;28;20272;-80
2023/03/20 05:06:26;;;;;;;12.90;7.27;;;;;7.80;96487.00;;;;8416932;28;20292;-76
2023/03/20 05:10:31;;;;;;;11.50;6.60;;;;;7.70;96491.00;;;;8419847;28;20270;-80
2023/03/20 05:14:35;;;;;;;21.40;7.47;;;;;7.70;96479.00;;;;8412314;28;20191;-76
2023/03/20 05:18:38;;;;;;;12.87;7.67;;;;;7.70;96486.00;;;;8405666;28;20203;-83
2023/03/20 05:22:45;;;;;;;15.20;8.07;;;;;7.70;96488.00;;;;8386888;28;20274;-84
2023/03/20 05:26:52;;;;;;;18.20;8.63;;;;;7.70;96496.00;;;;8405390;28;20706;-81
2023/03/20 05:30:59;;;;;;;18.73;8.20;;;;;7.80;96500.00;;;;8409857;28;20596;-80
2023/03/20 05:35:07;;;;;;;14.80;8.10;;;;;7.80;96504.00;;;;8406331;28;20720;-80
2023/03/20 05:39:14;;;;;;;16.40;8.17;;;;;7.80;96509.00;;;;8411756;28;20242;-88
2023/03/20 05:43:18;;;;;;;17.63;8.03;;;;;7.90;96513.00;;;;8406497;28;20256;-85
2023/03/20 05:47:21;;;;;;;15.60;8.07;;;;;7.90;96515.00;;;;8412807;28;20230;-83
2023/03/20 05:51:30;;;;;;;22.17;10.23;;;;;8.00;96517.00;;;;8410541;28;20217;-86
2023/03/20 05:55:35;;;;;;;18.73;9.07;;;;;8.00;96512.00;;;;8400273;28;20649;-86
2023/03/20 05:59:40;;;;;;;26.77;13.47;;;;;8.10;96515.00;;;;8430152;28;20640;-87
2023/03/20 06:03:43;;;;;;;17.40;9.70;;;;;8.20;96524.00;;;;8401008;28;20230;-85
2023/03/20 06:07:46;;;;;;;18.23;9.03;;;;;8.30;96528.00;;;;8405857;28;20226;-83
2023/03/20 06:11:52;;;;;;;18.77;9.37;;;;;8.40;96533.00;;;;8412578;28;20578;-83
2023/03/20 06:15:58;;;;;;;19.37;9.90;;;;;8.40;96540.00;;;;8406188;28;20199;-83
2023/03/20 06:20:03;;;;;;;19.73;9.70;;;;;8.50;96533.00;;;;8400514;28;20231;-83
2023/03/20 06:24:10;;;;;;;23.73;10.57;;;;;8.60;96538.00;;;;8416643;28;20258;-83
2023/03/20 06:28:16;;;;;;;25.17;12.40;;;;;8.70;96536.00;;;;8417671;28;20231;-83
2023/03/20 06:32:21;;;;;;;21.27;11.10;;;;;8.80;96540.00;;;;8418192;28;20191;-85
2023/03/20 06:36:27;;;;;;;18.93;9.63;;;;;8.80;96541.00;;;;8422489;28;20204;-85
2023/03/20 06:40:31;;;;;;;18.33;10.03;;;;;8.90;96547.00;;;;8415831;28;20192;-85
2023/03/20 06:44:37;;;;;;;15.37;9.57;;;;;9.00;96551.00;;;;8422504;28;20200;-86
2023/03/20 06:48:41;;;;;;;19.07;10.70;;;;;9.20;96548.00;;;;8397050;28;20619;-86
2023/03/20 06:52:47;;;;;;;19.17;10.30;;;;;9.30;96539.00;;;;8412311;28;20226;-85
2023/03/20 06:56:55;;;;;;;24.47;12.20;;;;;9.50;96540.00;;;;8417852;28;20559;-85
2023/03/20 07:00:59;;;;;;;29.77;13.87;;;;;9.70;96550.00;;;;8419052;28;20196;-83
2023/03/20 07:05:03;;;;;;;22.43;12.70;;;;;9.90;96552.00;;;;8417642;28;20304;-84
2023/03/20 07:09:10;;;;;;;19.13;10.50;;;;;10.10;96560.00;;;;8416610;28;20327;-84
2023/03/20 07:13:14;;;;;;;15.88;10.07;;;;;10.20;96560.00;;;;8423142;28;20202;-83
2023/03/20 07:17:19;;;;;;;23.10;12.90;;;;;10.30;96574.00;;;;8420715;28;20292;-84
2023/03/20 07:21:23;;;;;;;30.07;14.53;;;;;10.40;96588.00;;;;8419487;28;20266;-84
2023/03/20 07:25:26;;;;;;;23.10;12.93;;;;;10.50;96591.00;;;;8426343;28;20202;-84
2023/03/20 07:29:47;;;;;;;20.55;12.02;;;;;10.70;96586.00;;;;8422406;28;20261;-84
2023/03/20 07:33:51;;;;;;;18.30;10.60;;;;;10.80;96588.00;;;;8419264;28;20207;-84
2023/03/20 07:37:54;;;;;;;17.00;10.07;;;;;11.00;96585.00;;;;8417036;28;20204;-85
2023/03/20 07:42:00;;;;;;;15.20;9.88;;;;;11.10;96593.00;;;;8424330;28;20201;-85
2023/03/20 07:46:03;;;;;;;14.63;9.57;;;;;11.10;96591.00;;;;8426406;28;20718;-86
2023/03/20 07:50:10;;;;;;;17.25;9.82;;;;;11.30;96594.00;;;;8416080;28;20315;-84
2023/03/20 07:54:16;;;;;;;11.63;9.20;;;;;11.50;96593.00;;;;8417554;28;20236;-84
2023/03/20 07:58:22;;;;;;;10.30;7.88;;;;;11.50;96585.00;;;;8409198;28;20472;-84
2023/03/20 08:02:25;;;;;;;12.63;8.70;;;;;11.70;96585.00;;;;8420097;28;20268;-85
2023/03/20 08:06:35;;;;;;;15.60;8.48;;;;;11.80;96590.00;;;;8422918;28;20203;-86
2023/03/20 08:10:42;;;;;;;10.23;7.80;;;;;11.90;96594.00;;;;8415971;28;20281;-84
2023/03/20 08:14:46;;;;;;;9.95;7.70;;;;;11.90;96588.00;;;;8420481;28;20803;-86
2023/03/20 08:18:52;;;;;;;13.30;8.88;;;;;12.00;96579.00;;;;8417645;28;20191;-82
2023/03/20 08:22:58;;;;;;;9.43;7.70;;;;;12.20;96577.00;;;;8418094;28;20561;-88
2023/03/20 08:27:03;;;;;;;8.95;7.35;;;;;12.40;96586.00;;;;8417973;28;20266;-85
2023/03/20 08:31:08;;;;;;;9.40;7.37;;;;;12.60;96588.00;;;;8421433;28;20202;-90
2023/03/20 08:35:13;;;;;;;8.80;7.43;;;;;12.80;96597.00;;;;8415115;28;20197;-83
2023/03/20 08:39:38;;;;;;;8.55;7.55;;;;;12.90;96601.00;;;;8424961;28;20221;-83
2023/03/20 08:43:41;;;;;;;9.48;7.60;;;;;13.00;96590.00;;;;8404315;28;20193;-86
2023/03/20 08:47:47;;;;;;;8.75;6.93;;;;;13.20;96593.00;;;;8417748;28;20219;-86
2023/03/20 08:51:53;;;;;;;9.25;8.00;;;;;13.30;96603.00;;;;8419293;28;20221;-86
2023/03/20 08:56:01;;;;;;;9.27;7.13;;;;;13.80;96601.00;;;;8415758;28;20292;-86
2023/03/20 09:00:06;;;;;;;8.25;6.53;;;;;14.40;96602.00;;;;8423895;28;20195;-84
2023/03/20 09:04:11;;;;;;;6.78;5.85;;;;;14.80;96613.00;;;;8427776;28;20234;-84
2023/03/20 09:08:15;;;;;;;8.77;5.75;;;;;14.80;96611.00;;;;8420916;28;20355;-85
2023/03/20 09:12:20;;;;;;;5.85;5.28;;;;;15.30;96615.00;;;;8418650;28;20575;-84
2023/03/20 09:16:23;;;;;;;6.60;5.15;;;;;15.80;96614.00;;;;8423443;28;20206;-85
2023/03/20 09:20:26;;;;;;;5.78;5.28;;;;;15.70;96618.00;;;;8418176;28;20204;-86
2023/03/20 09:24:34;;;;;;;6.07;5.18;;;;;15.70;96619.00;;;;8417742;28;20200;-85
2023/03/20 09:28:39;;;;;;;7.13;5.80;;;;;15.30;96623.00;;;;8420112;28;20226;-85
2023/03/20 09:32:42;;;;;;;7.15;5.57;;;;;14.90;96619.00;;;;8412615;28;20662;-86
2023/03/20 09:36:45;;;;;;;5.85;5.25;;;;;14.60;96633.00;;;;8412581;28;20299;-82
2023/03/20 09:40:53;;;;;;;6.10;4.50;;;;;14.70;96626.00;;;;8415028;28;20196;-86
2023/03/20 09:45:10;;;;;;;6.03;5.38;;;;;14.70;96630.00;;;;8412374;28;20208;-84
2023/03/20 09:49:26;;;;;;;4.60;4.20;;;;;15.00;96628.00;;;;8412486;28;20227;-84
2023/03/20 09:53:33;;;;;;;6.28;4.75;;;;;14.80;96623.00;;;;8426256;28;20611;-86
2023/03/20 09:57:42;;;;;;;5.85;4.30;;;;;15.10;96625.00;;;;8399584;28;20211;-82
2023/03/20 10:01:50;;;;;;;5.55;3.45;;;;;15.40;96625.00;;;;8420764;28;20215;-83
2023/03/20 10:05:58;;;;;;;4.30;4.00;;;;;15.40;96625.00;;;;8421783;28;20208;-82
2023/03/20 10:10:01;;;;;;;3.83;3.53;;;;;15.60;96624.00;;;;8410795;28;20680;-82
2023/03/20 10:14:20;;;;;;;4.25;3.85;;;;;16.00;96617.00;;;;8409493;28;20738;-82
2023/03/20 10:18:28;;;;;;;4.28;3.90;;;;;16.10;96616.00;;;;8415089;28;20200;-82
2023/03/20 10:22:36;;;;;;;4.50;3.80;;;;;16.10;96616.00;;;;8424367;28;20211;-86
2023/03/20 10:26:40;;;;;;;4.07;3.67;;;;;16.10;96620.00;;;;8412878;28;20285;-84
2023/03/20 10:30:57;;;;;;;4.50;3.83;;;;;16.20;96623.00;;;;8413176;28;20218;-82
2023/03/20 10:35:15;;;;;;;3.72;3.42;;;;;16.50;96623.00;;;;8415582;28;20192;-83
2023/03/20 10:39:26;;;;;;;3.38;3.15;;;;;16.80;96620.00;;;;8422106;28;20777;-82
2023/03/20 10:43:34;;;;;;;3.40;3.20;;;;;16.60;96616.00;;;;8413414;28;20207;-84
2023/03/20 10:47:48;;;;;;;3.67;3.20;;;;;16.50;96609.00;;;;8418421;28;20195;-84
2023/03/20 10:52:00;;;;;;;3.45;3.20;;;;;16.70;96602.00;;;;8428340;28;20283;-84
2023/03/20 10:56:07;;;;;;;3.10;2.80;;;;;17.40;96598.00;;;;8431794;28;20221;-84
2023/03/20 11:00:20;;;;;;;2.78;2.67;;;;;18.20;96592.00;;;;8438052;28;20647;-84
2023/03/20 11:04:23;;;;;;;3.00;2.80;;;;;19.10;96589.00;;;;8421912;28;20223;-84
2023/03/20 11:08:35;;;;;;;2.75;2.65;;;;;19.10;96577.00;;;;8423164;28;20269;-84
2023/03/20 11:12:43;;;;;;;2.80;2.40;;;;;18.90;96576.00;;;;8417112;28;20644;-84
2023/03/20 11:16:53;;;;;;;2.25;2.15;;;;;18.30;96580.00;;;;8429250;28;20222;-84
2023/03/20 11:20:58;;;;;;;2.10;2.00;;;;;18.00;96580.00;;;;8408481;28;20250;-85
2023/03/20 11:25:07;;;;;;;3.60;2.28;;;;;17.70;96577.00;;;;8402817;28;20679;-80
2023/03/20 11:29:26;;;;;;;2.15;2.05;;;;;17.40;96575.00;;;;8418553;28;20219;-81
2023/03/20 11:33:30;;;;;;;3.00;2.17;;;;;17.30;96579.00;;;;8415745;28;20195;-78
2023/03/20 11:37:35;;;;;;;2.03;1.92;;;;;17.20;96581.00;;;;8428758;28;20192;-81
2023/03/20 11:41:51;;;;;;;2.00;1.90;;;;;17.00;96572.00;;;;8411774;28;21007;-79
2023/03/20 11:45:57;;;;;;;1.90;1.80;;;;;16.90;96573.00;;;;8416348;28;20203;-82
2023/03/20 11:50:04;;;;;;;1.80;1.70;;;;;16.60;96572.00;;;;8407188;28;20219;-81
2023/03/20 11:54:15;;;;;;;2.05;1.90;;;;;16.30;96577.00;;;;8421127;28;20261;-81
2023/03/20 11:58:23;;;;;;;1.70;1.70;;;;;16.10;96562.00;;;;8409432;28;20203;-78
2023/03/20 12:02:27;;;;;;;2.05;1.95;;;;;16.00;96568.00;;;;8418609;28;20277;-78
2023/03/20 12:06:46;;;;;;;2.30;2.13;;;;;15.90;96573.00;;;;8425364;28;20194;-80
2023/03/20 12:10:55;;;;;;;1.90;1.80;;;;;15.80;96582.00;;;;8421739;28;20334;-79
2023/03/20 12:15:08;;;;;;;2.65;2.45;;;;;15.80;96586.00;;;;8418613;28;20302;-81
2023/03/20 12:19:21;;;;;;;2.10;2.00;;;;;16.10;96582.00;;;;8417838;28;20651;-83
2023/03/20 12:23:32;;;;;;;1.90;1.80;;;;;16.30;96576.00;;;;8414184;28;20199;-83
2023/03/20 12:27:38;;;;;;;1.98;1.88;;;;;16.50;96566.00;;;;8416390;28;20641;-78
2023/03/20 12:31:47;;;;;;;1.80;1.70;;;;;16.50;96568.00;;;;8421111;28;20641;-82
2023/03/20 12:35:53;;;;;;;2.20;1.70;;;;;16.50;96559.00;;;;8415114;28;20216;-82
2023/03/20 12:40:03;;;;;;;2.00;1.90;;;;;16.50;96550.00;;;;8421497;28;20278;-81
2023/03/20 12:44:29;;;;;;;2.10;2.00;;;;;16.40;96554.00;;;;8408600;28;20191;-83
2023/03/20 12:49:03;;;;;;;4.53;2.00;;;;;16.50;96549.00;;;;8418345;28;20692;-84
2023/03/20 12:53:20;;;;;;;1.85;1.75;;;;;16.60;96549.00;;;;8401266;28;20221;-82
2023/03/20 12:57:34;;;;;;;2.22;1.90;;;;;16.90;96545.00;;;;8410844;28;20212;-83
2023/03/20 13:01:45;;;;;;;2.15;1.85;;;;;17.00;96558.00;;;;8410237;28;20286;-83
2023/03/20 13:06:03;;;;;;;1.90;1.80;;;;;16.90;96550.00;;;;8411634;28;20250;-82
2023/03/20 13:10:18;;;;;;;1.60;1.60;;;;;16.50;96542.00;;;;8411908;28;20227;-83
2023/03/20 13:14:31;;;;;;;2.63;1.77;;;;;16.30;96540.00;;;;8419460;28;20195;-82
2023/03/20 13:18:48;;;;;;;1.63;1.58;;;;;16.20;96530.00;;;;8411860;28;20233;-81
2023/03/20 13:23:05;;;;;;;2.10;1.90;;;;;16.20;96533.00;;;;8405688;28;20278;-81
2023/03/20 13:27:20;;;;;;;2.00;1.90;;;;;16.20;96532.00;;;;8390835;28;20249;-82
2023/03/20 13:31:53;;;;;;;1.90;1.80;;;;;16.30;96527.00;;;;8392252;28;20818;-83
2023/03/20 13:36:02;;;;;;;1.80;1.70;;;;;16.40;96524.00;;;;8404989;28;20557;-78
2023/03/20 13:40:17;;;;;;;1.70;1.60;;;;;16.50;96525.00;;;;8408613;28;20199;-82
2023/03/20 13:44:24;;;;;;;1.98;1.80;;;;;16.50;96518.00;;;;8405735;28;20208;-84
2023/03/20 13:48:33;;;;;;;1.45;1.38;;;;;16.40;96522.00;;;;8406669;28;20199;-84
2023/03/20 13:52:42;;;;;;;1.52;1.52;;;;;16.00;96521.00;;;;8417076;28;20220;-83
2023/03/20 13:57:22;;;;;;;1.67;1.63;;;;;15.70;96531.00;;;;8438976;27;20961;-86
2023/03/20 14:01:37;;;;;;;2.00;1.90;;;;;15.60;96517.00;;;;8430623;28;20194;-83
2023/03/20 14:05:42;;;;;;;1.90;1.80;;;;;15.40;96524.00;;;;8402495;28;20953;-86
2023/03/20 14:09:46;;;;;;;2.00;1.80;;;;;15.50;96527.00;;;;8394627;28;20193;-82
2023/03/20 14:13:56;;;;;;;1.85;1.75;;;;;15.50;96522.00;;;;8402140;28;20776;-84
2023/03/20 14:18:06;;;;;;;1.50;1.50;;;;;15.50;96520.00;;;;8402424;28;20857;-85
2023/03/20 14:22:16;;;;;;;1.90;1.80;;;;;15.40;96521.00;;;;8404289;28;20196;-84
2023/03/20 14:26:22;;;;;;;2.28;2.08;;;;;15.30;96522.00;;;;8403037;28;20204;-87
2023/03/20 14:30:41;;;;;;;1.67;1.58;;;;;15.20;96523.00;;;;8410251;28;20189;-87
2023/03/20 14:34:47;;;;;;;1.55;1.52;;;;;15.20;96512.00;;;;8408366;28;20223;-89
2023/03/20 14:39:04;;;;;;;3.15;1.83;;;;;15.10;96507.00;;;;8410343;28;20947;-89
2023/03/20 14:43:20;;;;;;;2.95;1.40;;;;;14.90;96515.00;;;;8406772;28;20255;-89
2023/03/20 14:47:38;;;;;;;1.70;1.60;;;;;14.70;96509.00;;;;8404765;28;20208;-84
2023/03/20 14:51:46;;;;;;;1.85;1.75;;;;;14.70;96495.00;;;;8403560;28;20248;-84
2023/03/20 14:56:07;;;;;;;1.70;1.60;;;;;14.70;96504.00;;;;8408097;28;20225;-83
2023/03/20 15:00:19;;;;;;;1.80;1.70;;;;;14.80;96498.00;;;;8404186;28;20298;-83
2023/03/20 15:04:42;;;;;;;2.08;1.90;;;;;14.70;96489.00;;;;8405865;28;20821;-82
2023/03/20 15:08:49;;;;;;;1.83;1.73;;;;;14.70;96491.00;;;;8381272;28;20588;-80
2023/03/20 15:12:56;;;;;;;1.80;1.70;;;;;14.70;96484.00;;;;8375172;28;20201;-81
2023/03/20 15:17:06;;;;;;;3.30;1.75;;;;;14.70;96493.00;;;;8379913;28;20573;-84
2023/03/20 15:21:14;;;;;;;1.75;1.65;;;;;14.70;96488.00;;;;8381394;28;20266;-84
2023/03/20 15:25:24;;;;;;;1.75;1.63;;;;;14.70;96479.00;;;;8382214;28;20192;-84
2023/03/20 15:29:31;;;;;;;2.60;1.88;;;;;14.60;96479.00;;;;8378135;28;20204;-82
2023/03/20 15:33:40;;;;;;;1.90;1.80;;;;;14.60;96479.00;;;;8381218;28;20211;-84
2023/03/20 15:37:50;;;;;;;2.08;1.88;;;;;14.60;96476.00;;;;8381971;28;20206;-85
2023/03/20 15:41:56;;;;;;;1.90;1.80;;;;;14.50;96470.00;;;;8386338;28;20208;-84
2023/03/20 15:46:00;;;;;;;4.78;2.10;;;;;14.50;96467.00;;;;8378078;28;20204;-86
2023/03/20 15:50:20;;;;;;;2.40;1.60;;;;;14.40;96468.00;;;;8378986;28;20207;-86
2023/03/20 15:54:26;;;;;;;2.22;1.98;;;;;14.30;96477.00;;;;8386167;28;20621;-86
2023/03/20 15:58:30;;;;;;;2.15;2.00;;;;;14.30;96466.00;;;;8385435;28;20200;-86
2023/03/20 16:02:37;;;;;;;2.75;2.05;;;;;14.30;96473.00;;;;8382467;28;20249;-86
2023/03/20 16:06:47;;;;;;;2.00;1.88;;;;;14.20;96476.00;;;;8383266;28;20215;-86
2023/03/20 16:10:56;;;;;;;2.15;2.05;;;;;14.20;96479.00;;;;8388179;28;20195;-86
2023/03/20 16:15:04;;;;;;;2.28;2.08;;;;;14.10;96475.00;;;;8378710;28;20285;-85
2023/03/20 16:19:08;;;;;;;5.13;2.50;;;;;14.10;96475.00;;;;8380132;28;20196;-86
2023/03/20 16:23:22;;;;;;;2.85;2.15;;;;;14.10;96475.00;;;;8383989;28;20223;-81
2023/03/20 16:27:30;;;;;;;3.00;2.42;;;;;14.10;96472.00;;;;8378133;28;20670;-82
2023/03/20 16:31:59;;;;;;;2.83;2.30;;;;;14.00;96470.00;;;;8380715;28;20210;-85
2023/03/20 16:36:02;;;;;;;2.30;2.10;;;;;14.00;96476.00;;;;8370561;28;21077;-84
2023/03/20 16:40:21;;;;;;;3.20;2.00;;;;;13.90;96471.00;;;;8373726;28;20710;-88
2023/03/20 16:44:32;;;;;;;3.30;2.08;;;;;13.80;96479.00;;;;8367997;28;20498;-85
2023/03/20 16:48:41;;;;;;;2.38;1.90;;;;;13.80;96480.00;;;;8375903;28;20682;-84
2023/03/20 16:52:49;;;;;;;2.40;2.20;;;;;13.70;96480.00;;;;8370716;28;20246;-86
2023/03/20 16:56:54;;;;;;;2.30;2.10;;;;;13.60;96485.00;;;;8378990;28;20247;-85
2023/03/20 17:01:03;;;;;;;2.38;2.20;;;;;13.50;96497.00;;;;8379892;28;20230;-85
2023/03/20 17:05:18;;;;;;;2.47;2.30;;;;;13.40;96496.00;;;;8379315;28;20685;-85
2023/03/20 17:09:24;;;;;;;2.20;2.10;;;;;13.30;96497.00;;;;8374052;28;20200;-86
2023/03/20 17:13:28;;;;;;;3.28;2.65;;;;;13.30;96494.00;;;;8372095;28;20207;-86
2023/03/20 17:17:33;;;;;;;2.38;2.17;;;;;13.30;96499.00;;;;8377840;28;20316;-89
2023/03/20 17:21:37;;;;;;;2.28;2.03;;;;;13.30;96503.00;;;;8379069;28;20212;-86
2023/03/20 17:25:40;;;;;;;2.20;2.03;;;;;13.20;96506.00;;;;8381398;28;20208;-88
2023/03/20 17:29:44;;;;;;;2.20;2.10;;;;;13.20;96503.00;;;;8380709;28;20245;-87
2023/03/20 17:33:53;;;;;;;2.33;2.22;;;;;13.10;96503.00;;;;8379212;28;20195;-88
2023/03/20 17:37:56;;;;;;;4.30;2.67;;;;;13.10;96512.00;;;;8381062;28;20224;-86
2023/03/20 17:41:59;;;;;;;3.40;2.53;;;;;13.00;96507.00;;;;8380133;28;20204;-88
2023/03/20 17:46:02;;;;;;;4.70;3.67;;;;;12.90;96517.00;;;;8388842;28;20199;-86
2023/03/20 17:50:09;;;;;;;35.08;25.27;;;;;12.90;96515.00;;;;8380035;28;20243;-87
2023/03/20 17:54:13;;;;;;;4.85;3.92;;;;;12.80;96511.00;;;;8380562;28;20223;-89
2023/03/20 17:58:19;;;;;;;3.42;3.13;;;;;12.70;96513.00;;;;8383410;28;20238;-89
2023/03/20 18:02:23;;;;;;;5.85;5.10;;;;;12.60;96514.00;;;;8380483;28;20228;-86
2023/03/20 18:06:30;;;;;;;56.35;42.72;;;;;12.50;96515.00;;;;8381604;28;20199;-87
2023/03/20 18:10:35;;;;;;;13.68;11.88;;;;;12.30;96512.00;;;;8381103;28;20207;-86
2023/03/20 18:14:42;;;;;;;4.95;4.13;;;;;12.10;96516.00;;;;8373973;28;20206;-85
2023/03/20 18:18:46;;;;;;;5.95;4.10;;;;;12.00;96521.00;;;;8375649;28;20203;-86
2023/03/20 18:22:55;;;;;;;5.65;4.40;;;;;11.80;96528.00;;;;8373222;28;20207;-84
2023/03/20 18:27:02;;;;;;;6.53;4.65;;;;;11.60;96528.00;;;;8369438;28;20289;-84
2023/03/20 18:31:08;;;;;;;5.97;4.30;;;;;11.50;96529.00;;;;8372908;28;20202;-84
2023/03/20 18:35:15;;;;;;;9.45;4.85;;;;;11.30;96522.00;;;;8364340;28;20246;-84
2023/03/20 18:39:21;;;;;;;4.63;4.20;;;;;11.20;96518.00;;;;8363735;28;20963;-89
2023/03/20 18:43:25;;;;;;;4.82;4.28;;;;;11.00;96522.00;;;;8373582;28;20210;-86
2023/03/20 18:47:29;;;;;;;6.75;5.05;;;;;10.80;96520.00;;;;8376612;28;20199;-84
2023/03/20 18:51:33;;;;;;;6.93;4.70;;;;;10.60;96529.00;;;;8377665;28;20196;-81
2023/03/20 18:55:41;;;;;;;7.32;4.95;;;;;10.40;96527.00;;;;8366554;28;20230;-89
2023/03/20 18:59:45;;;;;;;8.20;5.70;;;;;10.20;96524.00;;;;8380979;28;20405;-87
2023/03/20 19:03:52;;;;;;;6.20;4.88;;;;;9.90;96527.00;;;;8380172;28;20222;-89
2023/03/20 19:07:58;;;;;;;9.23;5.45;;;;;9.70;96523.00;;;;8374357;28;20212;-87
2023/03/20 19:12:03;;;;;;;8.20;5.63;;;;;9.60;96524.00;;;;8371625;28;20201;-82
2023/03/20 19:16:19;;;;;;;8.30;5.57;;;;;9.40;96523.00;;;;8380218;28;20232;-82
2023/03/20 19:20:32;;;;;;;8.27;5.93;;;;;9.30;96517.00;;;;8374012;28;20948;-81
2023/03/20 19:24:36;;;;;;;7.15;5.30;;;;;9.20;96521.00;;;;8377146;28;20234;-81
2023/03/20 19:28:41;;;;;;;8.97;6.03;;;;;9.10;96515.00;;;;8381229;28;20200;-81
2023/03/20 19:32:47;;;;;;;10.43;6.70;;;;;9.00;96518.00;;;;8385258;28;20196;-80
2023/03/20 19:36:55;;;;;;;11.23;6.97;;;;;8.90;96517.00;;;;8382408;28;20338;-81
2023/03/20 19:40:59;;;;;;;10.77;6.03;;;;;8.80;96518.00;;;;8382254;28;20265;-80
2023/03/20 19:45:04;;;;;;;7.40;5.47;;;;;8.70;96520.00;;;;8379229;28;20207;-80
2023/03/20 19:49:18;;;;;;;12.27;6.40;;;;;8.60;96528.00;;;;8376514;28;20223;-81
2023/03/20 19:53:26;;;;;;;8.17;5.63;;;;;8.50;96527.00;;;;8372367;28;20215;-79
2023/03/20 19:57:31;;;;;;;11.43;6.50;;;;;8.40;96524.00;;;;8345189;28;20310;-81
2023/03/20 20:01:36;;;;;;;11.93;6.50;;;;;8.30;96525.00;;;;8364016;28;20201;-80
2023/03/20 20:05:40;;;;;;;10.07;7.13;;;;;8.20;96521.00;;;;8359049;28;20197;-80
2023/03/20 20:09:43;;;;;;;10.27;6.80;;;;;8.10;96523.00;;;;8380300;28;20199;-80
2023/03/20 20:13:47;;;;;;;19.20;10.53;;;;;8.00;96520.00;;;;8365173;28;20255;-83
2023/03/20 20:18:11;;;;;;;11.48;7.60;;;;;7.90;96518.00;;;;8370429;28;20237;-83
2023/03/20 20:22:16;;;;;;;14.50;7.33;;;;;7.70;96519.00;;;;8370280;28;20196;-79
2023/03/20 20:26:29;;;;;;;16.77;9.93;;;;;7.60;96519.00;;;;8373070;28;20204;-79
2023/03/20 20:30:38;;;;;;;16.83;8.63;;;;;7.50;96516.00;;;;8375525;28;20207;-80
2023/03/20 20:34:43;;;;;;;15.33;8.30;;;;;7.50;96514.00;;;;8381266;28;20250;-79
2023/03/20 20:39:06;;;;;;;15.70;8.83;;;;;7.50;96514.00;;;;8388562;28;20273;-78
2023/03/20 20:43:10;;;;;;;16.87;10.03;;;;;7.60;96519.00;;;;8398567;28;20192;-79